createdAt,value
2023-05-01T04:55:20.081Z,68.00
2023-05-01T05:00:23.897Z,67.90
2023-05-01T05:05:27.512Z,66.20
2023-05-01T05:10:32.528Z,63.30
2023-05-01T05:15:35.942Z,61.60
2023-05-01T05:20:40.571Z,61.20
2023-05-01T05:25:45.430Z,60.80
2023-05-01T05:30:49.206Z,60.20
2023-05-01T05:35:53.322Z,61.50
2023-05-01T05:40:59.463Z,60.70
2023-05-01T05:46:03.182Z,61.00
2023-05-01T05:51:06.856Z,61.80
2023-05-01T05:56:11.713Z,62.70
2023-05-01T06:01:15.129Z,62.60
2023-05-01T06:06:19.208Z,62.40
2023-05-01T06:11:24.190Z,61.00
2023-05-01T06:16:28.006Z,61.30
2023-05-01T06:21:32.304Z,60.70
2023-05-01T06:26:37.393Z,59.20
2023-05-01T06:31:41.035Z,57.80
2023-05-01T06:36:44.779Z,56.60
2023-05-01T06:41:49.552Z,55.90
2023-05-01T06:46:53.250Z,55.20
2023-05-01T06:51:56.950Z,54.60
2023-05-01T06:57:01.811Z,54.30
2023-05-01T07:02:05.205Z,53.60
2023-05-01T07:07:08.714Z,52.80
2023-05-01T07:12:13.533Z,51.80
2023-05-01T07:17:17.408Z,50.50
2023-05-01T07:22:20.844Z,48.80
2023-05-01T07:27:26.097Z,49.10
2023-05-01T07:32:31.380Z,49.20
2023-05-01T07:37:34.973Z,49.40
2023-05-01T07:42:40.304Z,48.80
2023-05-01T07:47:43.810Z,48.20
2023-05-01T07:52:47.382Z,47.50
2023-05-01T07:57:52.194Z,45.00
2023-05-01T08:02:55.771Z,45.80
2023-05-01T08:07:59.434Z,43.90
2023-05-01T08:13:04.493Z,44.80
2023-05-01T08:18:08.000Z,44.80
2023-05-01T08:23:11.555Z,44.30
2023-05-01T08:28:16.599Z,42.10
2023-05-01T08:33:20.350Z,41.10
2023-05-01T08:38:24.038Z,40.80
2023-05-01T08:43:30.888Z,41.40
2023-05-01T08:48:37.842Z,40.90
2023-05-01T08:53:43.223Z,41.20
2023-05-01T08:58:51.092Z,41.60
2023-05-01T09:03:55.895Z,42.60
2023-05-01T09:08:59.858Z,41.60
2023-05-01T09:14:05.541Z,41.30
2023-05-01T09:19:09.073Z,40.90
2023-05-01T09:24:12.911Z,39.80
2023-05-01T09:29:39.198Z,40.10
2023-05-01T09:34:43.660Z,40.30
2023-05-01T09:39:47.161Z,39.50
2023-05-01T09:44:52.238Z,39.00
2023-05-01T09:49:59.719Z,38.70
2023-05-01T09:55:17.046Z,39.50
2023-05-01T10:00:23.614Z,39.20
2023-05-01T10:05:27.247Z,39.30
2023-05-01T10:10:31.223Z,37.20
2023-05-01T10:15:39.105Z,37.60
2023-05-01T10:20:42.894Z,37.50
2023-05-01T10:25:48.556Z,38.20
2023-05-01T10:30:54.940Z,38.50
2023-05-01T10:36:00.857Z,35.50
2023-05-01T10:41:06.299Z,35.00
2023-05-01T10:46:29.884Z,35.10
2023-05-01T10:51:33.428Z,35.10
2023-05-01T10:56:44.284Z,33.30
2023-05-01T11:01:51.959Z,32.40
2023-05-01T11:07:18.927Z,33.70
2023-05-01T11:12:52.213Z,32.10
2023-05-01T11:17:57.561Z,31.10
2023-05-01T11:23:01.124Z,30.80
2023-05-01T11:28:06.718Z,31.90
2023-05-01T11:33:11.719Z,31.10
2023-05-01T11:38:19.749Z,30.00
2023-05-01T11:43:23.534Z,30.40
2023-05-01T11:48:29.577Z,28.80
2023-05-01T11:53:33.033Z,28.00
2023-05-01T11:58:37.072Z,28.20
2023-05-01T12:03:45.392Z,28.70
2023-05-01T12:08:51.780Z,29.00
2023-05-01T12:13:55.891Z,27.60
2023-05-01T12:19:01.029Z,27.20
2023-05-01T12:24:09.639Z,27.50
2023-05-01T12:29:13.805Z,25.70
2023-05-01T12:34:18.975Z,25.70
2023-05-01T12:39:23.577Z,25.50
2023-05-01T12:44:30.773Z,26.10
2023-05-01T12:49:37.407Z,26.10
2023-05-01T12:54:44.568Z,25.60
2023-05-01T12:59:49.549Z,25.30
2023-05-01T13:05:06.334Z,25.60
2023-05-01T13:10:10.666Z,25.80
2023-05-01T13:15:21.605Z,25.60
2023-05-01T13:20:28.659Z,25.60
2023-05-01T13:25:32.496Z,25.60
2023-05-01T13:30:36.811Z,25.00
2023-05-01T13:35:41.743Z,24.60
2023-05-01T13:40:45.563Z,24.20
2023-05-01T13:45:49.088Z,24.10
2023-05-01T13:50:54.364Z,24.40
2023-05-01T13:55:57.851Z,23.90
2023-05-01T14:01:01.476Z,23.40
2023-05-01T14:06:07.206Z,23.00
2023-05-01T14:11:12.630Z,22.70
2023-05-01T14:16:25.098Z,22.30
2023-05-01T14:21:30.232Z,22.00
2023-05-01T14:26:35.275Z,21.60
2023-05-01T14:31:40.656Z,19.90
2023-05-01T14:36:45.590Z,19.00
2023-05-01T14:41:49.259Z,17.60
2023-05-01T14:46:53.591Z,16.00
2023-05-01T14:51:58.710Z,15.80
2023-05-01T14:57:06.294Z,14.30
2023-05-01T15:02:09.972Z,14.00
2023-05-01T15:07:15.239Z,15.30
2023-05-01T15:12:20.548Z,16.20
2023-05-01T15:17:24.370Z,17.40
2023-05-01T15:22:29.360Z,17.80
2023-05-01T15:27:32.845Z,18.50
2023-05-01T15:32:36.483Z,19.10
2023-05-01T15:37:41.668Z,19.90
2023-05-01T15:42:45.566Z,20.30
2023-05-01T15:47:49.288Z,20.90
2023-05-01T15:52:54.439Z,21.40
2023-05-01T15:57:57.914Z,22.00
2023-05-01T16:03:03.158Z,22.50
2023-05-01T16:08:08.510Z,22.70
2023-05-01T16:13:12.048Z,22.30
2023-05-01T16:18:20.901Z,21.60
2023-05-01T16:23:26.504Z,20.50
2023-05-01T16:28:30.089Z,19.00
2023-05-01T16:33:35.793Z,18.00
2023-05-01T16:38:40.576Z,18.00
2023-05-01T16:43:44.143Z,18.50
2023-05-01T16:48:47.847Z,18.80
2023-05-01T16:53:52.701Z,19.30
2023-05-01T16:58:56.379Z,19.40
2023-05-01T17:03:59.852Z,20.80
2023-05-01T17:09:04.924Z,21.80
2023-05-01T17:14:08.347Z,22.60
2023-05-01T17:19:12.605Z,23.40
2023-05-01T17:24:17.647Z,24.50
2023-05-01T17:29:21.112Z,25.80
2023-05-01T17:34:24.789Z,26.30
2023-05-01T17:39:29.571Z,27.10
2023-05-01T17:44:33.715Z,27.90
2023-05-01T17:49:37.266Z,28.40
2023-05-01T17:54:42.280Z,28.80
2023-05-01T17:59:45.935Z,29.40
2023-05-01T18:04:50.308Z,30.00
2023-05-01T18:09:55.369Z,30.60
2023-05-01T18:15:01.706Z,30.80
2023-05-01T18:20:06.387Z,31.70
2023-05-01T18:25:11.470Z,32.60
2023-05-01T18:30:15.309Z,33.30
2023-05-01T18:35:19.191Z,34.50
2023-05-01T18:40:24.543Z,34.60
2023-05-01T18:45:28.097Z,35.60
2023-05-01T18:50:31.917Z,35.80
2023-05-01T18:55:36.730Z,35.90
2023-05-01T19:00:40.547Z,36.60
2023-05-01T19:05:44.043Z,36.90
2023-05-01T19:10:48.861Z,37.50
2023-05-01T19:15:53.522Z,38.20
2023-05-01T19:20:57.587Z,39.60
2023-05-01T19:26:02.432Z,39.00
2023-05-01T19:31:07.687Z,39.30
2023-05-01T19:36:11.242Z,39.70
2023-05-01T19:41:16.069Z,41.00
2023-05-01T19:46:19.815Z,41.50
2023-05-01T19:51:23.526Z,42.00
2023-05-01T19:56:28.597Z,42.10
2023-05-01T20:01:32.508Z,42.00
2023-05-01T20:06:36.013Z,42.20
2023-05-01T20:11:41.021Z,42.40
2023-05-01T20:16:44.755Z,43.00
2023-05-01T20:21:49.211Z,43.40
2023-05-01T20:26:55.839Z,44.20
2023-05-01T20:32:00.383Z,44.50
2023-05-01T20:37:04.036Z,44.90
2023-05-01T20:42:08.828Z,44.90
2023-05-01T20:47:13.704Z,44.60
2023-05-01T20:52:17.196Z,44.50
2023-05-01T20:57:22.311Z,44.80
2023-05-01T21:02:25.825Z,45.00
2023-05-01T21:07:30.557Z,44.60
2023-05-01T21:12:35.356Z,44.50
2023-05-01T21:17:41.320Z,44.50
2023-05-01T21:22:46.275Z,44.40
2023-05-01T21:27:51.716Z,44.20
2023-05-01T21:32:55.933Z,44.10
2023-05-01T21:37:59.642Z,44.20
2023-05-01T21:43:06.173Z,44.60
2023-05-01T21:48:10.125Z,45.00
2023-05-01T21:53:13.613Z,45.10
2023-05-01T21:58:18.722Z,45.20
2023-05-01T22:03:24.907Z,45.40
2023-05-01T22:08:28.434Z,45.70
2023-05-01T22:13:34.276Z,46.00
2023-05-01T22:18:37.688Z,46.10
2023-05-01T22:23:41.480Z,46.70
2023-05-01T22:28:46.387Z,46.80
